sensor_id;sensor_type;location;lat;lon;timestamp;P1;durP1;ratioP1;P2;durP2;ratioP2
25497;SDS011;13406;53.380;7.226;2022-11-20T00:02:24;9.80;;;8.63;;
25497;SDS011;13406;53.380;7.226;2022-11-20T00:04:50;10.53;;;8.70;;
25497;SDS011;13406;53.380;7.226;2022-11-20T00:07:15;9.87;;;8.03;;
25497;SDS011;13406;53.380;7.226;2022-11-20T00:09:41;8.50;;;6.53;;
25497;SDS011;13406;53.380;7.226;2022-11-20T00:12:06;8.60;;;5.60;;
25497;SDS011;13406;53.380;7.226;2022-11-20T00:14:32;8.90;;;6.83;;
25497;SDS011;13406;53.380;7.226;2022-11-20T00:16:57;8.40;;;6.97;;
25497;SDS011;13406;53.380;7.226;2022-11-20T00:19:23;9.17;;;7.20;;
25497;SDS011;13406;53.380;7.226;2022-11-20T00:21:48;7.20;;;6.40;;
25497;SDS011;13406;53.380;7.226;2022-11-20T00:24:16;6.57;;;5.90;;
25497;SDS011;13406;53.380;7.226;2022-11-20T00:26:42;10.73;;;7.57;;
25497;SDS011;13406;53.380;7.226;2022-11-20T00:29:08;9.30;;;6.33;;
25497;SDS011;13406;53.380;7.226;2022-11-20T00:31:35;6.83;;;6.00;;
25497;SDS011;13406;53.380;7.226;2022-11-20T00:34:00;7.70;;;5.70;;
25497;SDS011;13406;53.380;7.226;2022-11-20T00:36:27;9.73;;;6.43;;
25497;SDS011;13406;53.380;7.226;2022-11-20T00:38:54;6.77;;;5.40;;
25497;SDS011;13406;53.380;7.226;2022-11-20T00:41:21;6.80;;;5.60;;
25497;SDS011;13406;53.380;7.226;2022-11-20T00:43:47;6.73;;;5.03;;
25497;SDS011;13406;53.380;7.226;2022-11-20T00:46:14;7.37;;;5.83;;
25497;SDS011;13406;53.380;7.226;2022-11-20T00:48:41;6.50;;;5.03;;
25497;SDS011;13406;53.380;7.226;2022-11-20T00:51:08;8.00;;;5.57;;
25497;SDS011;13406;53.380;7.226;2022-11-20T00:53:34;8.50;;;5.50;;
25497;SDS011;13406;53.380;7.226;2022-11-20T00:56:00;6.13;;;4.87;;
25497;SDS011;13406;53.380;7.226;2022-11-20T00:58:31;6.97;;;5.73;;
25497;SDS011;13406;53.380;7.226;2022-11-20T01:01:06;5.53;;;4.80;;
25497;SDS011;13406;53.380;7.226;2022-11-20T01:03:34;6.33;;;5.10;;
25497;SDS011;13406;53.380;7.226;2022-11-20T01:06:11;6.00;;;4.90;;
25497;SDS011;13406;53.380;7.226;2022-11-20T01:08:45;5.10;;;4.60;;
25497;SDS011;13406;53.380;7.226;2022-11-20T01:11:12;5.20;;;4.40;;
25497;SDS011;13406;53.380;7.226;2022-11-20T01:13:39;7.30;;;4.60;;
25497;SDS011;13406;53.380;7.226;2022-11-20T01:16:07;4.80;;;4.10;;
25497;SDS011;13406;53.380;7.226;2022-11-20T01:18:38;4.97;;;3.97;;
25497;SDS011;13406;53.380;7.226;2022-11-20T01:21:16;5.00;;;4.17;;
25497;SDS011;13406;53.380;7.226;2022-11-20T01:23:44;6.07;;;4.50;;
25497;SDS011;13406;53.380;7.226;2022-11-20T01:26:11;6.07;;;4.37;;
25497;SDS011;13406;53.380;7.226;2022-11-20T01:28:39;5.43;;;4.13;;
25497;SDS011;13406;53.380;7.226;2022-11-20T01:33:39;6.20;;;3.97;;
25497;SDS011;13406;53.380;7.226;2022-11-20T01:36:06;5.57;;;4.03;;
25497;SDS011;13406;53.380;7.226;2022-11-20T01:38:32;6.80;;;5.37;;
25497;SDS011;13406;53.380;7.226;2022-11-20T01:40:57;5.50;;;4.63;;
25497;SDS011;13406;53.380;7.226;2022-11-20T01:43:23;8.23;;;5.60;;
25497;SDS011;13406;53.380;7.226;2022-11-20T01:45:57;5.30;;;4.80;;
25497;SDS011;13406;53.380;7.226;2022-11-20T01:48:40;7.13;;;5.20;;
25497;SDS011;13406;53.380;7.226;2022-11-20T01:51:25;7.20;;;5.50;;
25497;SDS011;13406;53.380;7.226;2022-11-20T01:53:59;7.00;;;5.33;;
25497;SDS011;13406;53.380;7.226;2022-11-20T01:56:27;7.03;;;5.73;;
25497;SDS011;13406;53.380;7.226;2022-11-20T01:58:56;7.00;;;5.57;;
25497;SDS011;13406;53.380;7.226;2022-11-20T02:01:25;9.50;;;6.77;;
25497;SDS011;13406;53.380;7.226;2022-11-20T02:03:51;6.97;;;6.10;;
25497;SDS011;13406;53.380;7.226;2022-11-20T02:06:26;7.73;;;5.47;;
25497;SDS011;13406;53.380;7.226;2022-11-20T02:08:56;9.00;;;6.40;;
25497;SDS011;13406;53.380;7.226;2022-11-20T02:11:21;7.60;;;6.30;;
25497;SDS011;13406;53.380;7.226;2022-11-20T02:13:47;8.10;;;6.00;;
25497;SDS011;13406;53.380;7.226;2022-11-20T02:16:19;8.33;;;5.90;;
25497;SDS011;13406;53.380;7.226;2022-11-20T02:18:47;7.50;;;6.07;;
25497;SDS011;13406;53.380;7.226;2022-11-20T02:24:06;7.97;;;5.80;;
25497;SDS011;13406;53.380;7.226;2022-11-20T02:26:38;7.00;;;6.20;;
25497;SDS011;13406;53.380;7.226;2022-11-20T02:29:07;9.30;;;5.27;;
25497;SDS011;13406;53.380;7.226;2022-11-20T02:31:37;7.40;;;5.90;;
25497;SDS011;13406;53.380;7.226;2022-11-20T02:34:06;8.33;;;6.80;;
25497;SDS011;13406;53.380;7.226;2022-11-20T02:36:32;9.70;;;6.53;;
25497;SDS011;13406;53.380;7.226;2022-11-20T02:39:00;7.73;;;6.13;;
25497;SDS011;13406;53.380;7.226;2022-11-20T02:41:33;6.93;;;6.23;;
25497;SDS011;13406;53.380;7.226;2022-11-20T02:44:00;7.13;;;6.43;;
25497;SDS011;13406;53.380;7.226;2022-11-20T02:46:26;8.20;;;6.60;;
25497;SDS011;13406;53.380;7.226;2022-11-20T02:48:52;7.90;;;6.57;;
25497;SDS011;13406;53.380;7.226;2022-11-20T02:51:17;5.80;;;5.20;;
25497;SDS011;13406;53.380;7.226;2022-11-20T02:53:43;7.97;;;6.33;;
25497;SDS011;13406;53.380;7.226;2022-11-20T02:56:09;7.73;;;5.30;;
25497;SDS011;13406;53.380;7.226;2022-11-20T02:58:34;8.60;;;6.27;;
25497;SDS011;13406;53.380;7.226;2022-11-20T03:01:00;11.43;;;5.70;;
25497;SDS011;13406;53.380;7.226;2022-11-20T03:03:25;9.83;;;6.50;;
25497;SDS011;13406;53.380;7.226;2022-11-20T03:05:51;9.20;;;6.50;;
25497;SDS011;13406;53.380;7.226;2022-11-20T03:08:16;6.40;;;5.17;;
25497;SDS011;13406;53.380;7.226;2022-11-20T03:10:42;9.07;;;6.30;;
25497;SDS011;13406;53.380;7.226;2022-11-20T03:13:08;8.40;;;5.80;;
25497;SDS011;13406;53.380;7.226;2022-11-20T03:15:33;8.77;;;6.70;;
25497;SDS011;13406;53.380;7.226;2022-11-20T03:18:01;8.70;;;5.67;;
25497;SDS011;13406;53.380;7.226;2022-11-20T03:20:26;7.20;;;5.90;;
25497;SDS011;13406;53.380;7.226;2022-11-20T03:22:53;6.27;;;5.57;;
25497;SDS011;13406;53.380;7.226;2022-11-20T03:25:19;6.57;;;4.97;;
25497;SDS011;13406;53.380;7.226;2022-11-20T03:27:45;7.20;;;5.20;;
25497;SDS011;13406;53.380;7.226;2022-11-20T03:30:11;5.87;;;5.20;;
25497;SDS011;13406;53.380;7.226;2022-11-20T03:32:36;4.33;;;3.83;;
25497;SDS011;13406;53.380;7.226;2022-11-20T03:35:02;6.23;;;5.13;;
25497;SDS011;13406;53.380;7.226;2022-11-20T03:37:28;5.60;;;4.37;;
25497;SDS011;13406;53.380;7.226;2022-11-20T03:39:53;5.67;;;4.67;;
25497;SDS011;13406;53.380;7.226;2022-11-20T03:42:19;6.17;;;4.20;;
25497;SDS011;13406;53.380;7.226;2022-11-20T03:45:03;4.70;;;4.20;;
25497;SDS011;13406;53.380;7.226;2022-11-20T03:47:29;5.60;;;4.10;;
25497;SDS011;13406;53.380;7.226;2022-11-20T03:49:55;4.93;;;4.40;;
25497;SDS011;13406;53.380;7.226;2022-11-20T03:52:20;6.10;;;5.20;;
25497;SDS011;13406;53.380;7.226;2022-11-20T03:54:46;5.00;;;4.50;;
25497;SDS011;13406;53.380;7.226;2022-11-20T03:57:11;4.73;;;4.23;;
25497;SDS011;13406;53.380;7.226;2022-11-20T03:59:37;6.90;;;5.20;;
25497;SDS011;13406;53.380;7.226;2022-11-20T04:02:02;4.47;;;3.87;;
25497;SDS011;13406;53.380;7.226;2022-11-20T04:04:28;4.67;;;4.17;;
25497;SDS011;13406;53.380;7.226;2022-11-20T04:06:54;5.00;;;4.07;;
25497;SDS011;13406;53.380;7.226;2022-11-20T04:09:19;5.27;;;4.10;;
25497;SDS011;13406;53.380;7.226;2022-11-20T04:11:45;8.93;;;4.50;;
25497;SDS011;13406;53.380;7.226;2022-11-20T04:14:12;4.83;;;4.33;;
25497;SDS011;13406;53.380;7.226;2022-11-20T04:16:39;6.50;;;3.90;;
25497;SDS011;13406;53.380;7.226;2022-11-20T04:19:06;4.67;;;3.70;;
25497;SDS011;13406;53.380;7.226;2022-11-20T04:21:35;4.53;;;3.33;;
25497;SDS011;13406;53.380;7.226;2022-11-20T04:24:01;5.00;;;3.30;;
25497;SDS011;13406;53.380;7.226;2022-11-20T04:26:28;4.20;;;3.80;;
25497;SDS011;13406;53.380;7.226;2022-11-20T04:28:54;3.63;;;3.23;;
25497;SDS011;13406;53.380;7.226;2022-11-20T04:31:26;4.40;;;4.00;;
25497;SDS011;13406;53.380;7.226;2022-11-20T04:33:53;4.00;;;3.60;;
25497;SDS011;13406;53.380;7.226;2022-11-20T04:36:20;8.13;;;4.03;;
25497;SDS011;13406;53.380;7.226;2022-11-20T04:38:50;4.60;;;4.00;;
25497;SDS011;13406;53.380;7.226;2022-11-20T04:41:18;4.07;;;3.67;;
25497;SDS011;13406;53.380;7.226;2022-11-20T04:43:48;4.97;;;3.70;;
25497;SDS011;13406;53.380;7.226;2022-11-20T04:46:15;5.50;;;4.00;;
25497;SDS011;13406;53.380;7.226;2022-11-20T04:48:41;4.33;;;3.93;;
25497;SDS011;13406;53.380;7.226;2022-11-20T04:51:07;5.57;;;4.23;;
25497;SDS011;13406;53.380;7.226;2022-11-20T04:53:32;4.53;;;4.13;;
25497;SDS011;13406;53.380;7.226;2022-11-20T04:56:05;4.73;;;4.23;;
25497;SDS011;13406;53.380;7.226;2022-11-20T04:58:32;3.77;;;3.37;;
25497;SDS011;13406;53.380;7.226;2022-11-20T05:01:04;6.17;;;4.00;;
25497;SDS011;13406;53.380;7.226;2022-11-20T05:03:32;5.97;;;4.37;;
25497;SDS011;13406;53.380;7.226;2022-11-20T05:06:00;4.60;;;4.20;;
25497;SDS011;13406;53.380;7.226;2022-11-20T05:08:27;5.17;;;4.37;;
25497;SDS011;13406;53.380;7.226;2022-11-20T05:10:54;5.73;;;4.30;;
25497;SDS011;13406;53.380;7.226;2022-11-20T05:13:24;4.67;;;4.00;;
25497;SDS011;13406;53.380;7.226;2022-11-20T05:15:49;5.20;;;4.27;;
25497;SDS011;13406;53.380;7.226;2022-11-20T05:18:17;5.10;;;4.60;;
25497;SDS011;13406;53.380;7.226;2022-11-20T05:20:42;5.07;;;4.10;;
25497;SDS011;13406;53.380;7.226;2022-11-20T05:23:08;5.17;;;4.00;;
25497;SDS011;13406;53.380;7.226;2022-11-20T05:25:35;6.20;;;4.30;;
25497;SDS011;13406;53.380;7.226;2022-11-20T05:28:01;5.07;;;4.37;;
25497;SDS011;13406;53.380;7.226;2022-11-20T05:30:27;4.57;;;4.00;;
25497;SDS011;13406;53.380;7.226;2022-11-20T05:32:52;4.67;;;4.10;;
25497;SDS011;13406;53.380;7.226;2022-11-20T05:35:17;4.80;;;4.27;;
25497;SDS011;13406;53.380;7.226;2022-11-20T05:37:43;4.53;;;3.90;;
25497;SDS011;13406;53.380;7.226;2022-11-20T05:40:09;4.13;;;3.73;;
25497;SDS011;13406;53.380;7.226;2022-11-20T05:42:35;4.80;;;4.30;;
25497;SDS011;13406;53.380;7.226;2022-11-20T05:45:03;5.60;;;4.20;;
25497;SDS011;13406;53.380;7.226;2022-11-20T05:47:33;5.87;;;4.67;;
25497;SDS011;13406;53.380;7.226;2022-11-20T05:49:59;5.70;;;4.27;;
25497;SDS011;13406;53.380;7.226;2022-11-20T05:52:27;4.53;;;4.07;;
25497;SDS011;13406;53.380;7.226;2022-11-20T05:54:53;3.93;;;2.80;;
25497;SDS011;13406;53.380;7.226;2022-11-20T05:57:18;5.30;;;3.20;;
25497;SDS011;13406;53.380;7.226;2022-11-20T05:59:44;4.10;;;3.20;;
25497;SDS011;13406;53.380;7.226;2022-11-20T06:02:14;4.90;;;3.30;;
25497;SDS011;13406;53.380;7.226;2022-11-20T06:04:40;3.30;;;3.00;;
25497;SDS011;13406;53.380;7.226;2022-11-20T06:07:08;3.47;;;3.17;;
25497;SDS011;13406;53.380;7.226;2022-11-20T06:09:33;4.43;;;4.03;;
25497;SDS011;13406;53.380;7.226;2022-11-20T06:11:59;4.93;;;4.27;;
25497;SDS011;13406;53.380;7.226;2022-11-20T06:14:24;4.20;;;3.80;;
25497;SDS011;13406;53.380;7.226;2022-11-20T06:16:50;4.27;;;3.70;;
25497;SDS011;13406;53.380;7.226;2022-11-20T06:19:15;3.97;;;3.60;;
25497;SDS011;13406;53.380;7.226;2022-11-20T06:21:41;4.00;;;3.60;;
25497;SDS011;13406;53.380;7.226;2022-11-20T06:24:08;4.33;;;3.93;;
25497;SDS011;13406;53.380;7.226;2022-11-20T06:26:35;8.17;;;4.13;;
25497;SDS011;13406;53.380;7.226;2022-11-20T06:29:00;5.27;;;3.70;;
25497;SDS011;13406;53.380;7.226;2022-11-20T06:31:26;3.80;;;3.43;;
25497;SDS011;13406;53.380;7.226;2022-11-20T06:33:52;4.60;;;3.90;;
25497;SDS011;13406;53.380;7.226;2022-11-20T06:36:18;4.90;;;3.97;;
25497;SDS011;13406;53.380;7.226;2022-11-20T06:38:45;3.73;;;3.30;;
25497;SDS011;13406;53.380;7.226;2022-11-20T06:41:12;4.87;;;3.50;;
25497;SDS011;13406;53.380;7.226;2022-11-20T06:43:42;6.60;;;3.60;;
25497;SDS011;13406;53.380;7.226;2022-11-20T06:46:09;3.57;;;3.17;;
25497;SDS011;13406;53.380;7.226;2022-11-20T06:48:36;3.80;;;3.30;;
25497;SDS011;13406;53.380;7.226;2022-11-20T06:51:05;4.07;;;3.40;;
25497;SDS011;13406;53.380;7.226;2022-11-20T06:53:32;3.90;;;3.30;;
25497;SDS011;13406;53.380;7.226;2022-11-20T06:55:58;5.63;;;4.43;;
25497;SDS011;13406;53.380;7.226;2022-11-20T06:58:28;3.80;;;3.50;;
25497;SDS011;13406;53.380;7.226;2022-11-20T07:00:58;3.83;;;3.43;;
25497;SDS011;13406;53.380;7.226;2022-11-20T07:03:44;3.73;;;3.43;;
25497;SDS011;13406;53.380;7.226;2022-11-20T07:06:10;4.07;;;3.60;;
25497;SDS011;13406;53.380;7.226;2022-11-20T07:08:36;4.90;;;3.57;;
25497;SDS011;13406;53.380;7.226;2022-11-20T07:11:03;3.43;;;3.13;;
25497;SDS011;13406;53.380;7.226;2022-11-20T07:13:30;4.53;;;3.80;;
25497;SDS011;13406;53.380;7.226;2022-11-20T07:15:59;4.77;;;3.87;;
25497;SDS011;13406;53.380;7.226;2022-11-20T07:18:26;4.30;;;3.90;;
25497;SDS011;13406;53.380;7.226;2022-11-20T07:20:52;4.07;;;3.20;;
25497;SDS011;13406;53.380;7.226;2022-11-20T07:23:19;4.73;;;4.33;;
25497;SDS011;13406;53.380;7.226;2022-11-20T07:25:47;4.80;;;4.20;;
25497;SDS011;13406;53.380;7.226;2022-11-20T07:28:13;4.40;;;4.00;;
25497;SDS011;13406;53.380;7.226;2022-11-20T07:30:38;4.50;;;3.90;;
25497;SDS011;13406;53.380;7.226;2022-11-20T07:33:04;8.00;;;5.53;;
25497;SDS011;13406;53.380;7.226;2022-11-20T07:35:30;5.60;;;5.00;;
25497;SDS011;13406;53.380;7.226;2022-11-20T07:37:55;6.53;;;5.50;;
25497;SDS011;13406;53.380;7.226;2022-11-20T07:40:21;6.80;;;5.20;;
25497;SDS011;13406;53.380;7.226;2022-11-20T07:42:47;6.07;;;5.37;;
25497;SDS011;13406;53.380;7.226;2022-11-20T07:45:13;5.37;;;4.87;;
25497;SDS011;13406;53.380;7.226;2022-11-20T07:47:39;6.40;;;5.77;;
25497;SDS011;13406;53.380;7.226;2022-11-20T07:50:05;7.67;;;6.57;;
25497;SDS011;13406;53.380;7.226;2022-11-20T07:52:30;6.73;;;5.47;;
25497;SDS011;13406;53.380;7.226;2022-11-20T07:54:56;6.70;;;5.73;;
25497;SDS011;13406;53.380;7.226;2022-11-20T07:57:21;6.70;;;5.67;;
25497;SDS011;13406;53.380;7.226;2022-11-20T07:59:47;8.37;;;6.20;;
25497;SDS011;13406;53.380;7.226;2022-11-20T08:02:12;6.93;;;5.97;;
25497;SDS011;13406;53.380;7.226;2022-11-20T08:04:38;7.47;;;6.43;;
25497;SDS011;13406;53.380;7.226;2022-11-20T08:07:03;8.37;;;6.53;;
25497;SDS011;13406;53.380;7.226;2022-11-20T08:09:29;6.53;;;5.90;;
25497;SDS011;13406;53.380;7.226;2022-11-20T08:11:57;8.10;;;6.10;;
25497;SDS011;13406;53.380;7.226;2022-11-20T08:14:41;7.40;;;6.13;;
25497;SDS011;13406;53.380;7.226;2022-11-20T08:17:07;6.60;;;5.90;;
25497;SDS011;13406;53.380;7.226;2022-11-20T08:19:35;6.67;;;6.03;;
25497;SDS011;13406;53.380;7.226;2022-11-20T08:22:00;8.03;;;6.43;;
25497;SDS011;13406;53.380;7.226;2022-11-20T08:24:26;6.80;;;5.97;;
25497;SDS011;13406;53.380;7.226;2022-11-20T08:26:51;7.47;;;5.27;;
25497;SDS011;13406;53.380;7.226;2022-11-20T08:29:17;7.20;;;5.70;;
25497;SDS011;13406;53.380;7.226;2022-11-20T08:31:43;8.53;;;6.33;;
25497;SDS011;13406;53.380;7.226;2022-11-20T08:34:09;6.97;;;6.27;;
25497;SDS011;13406;53.380;7.226;2022-11-20T08:36:34;7.93;;;6.50;;
25497;SDS011;13406;53.380;7.226;2022-11-20T08:39:00;11.43;;;6.23;;
25497;SDS011;13406;53.380;7.226;2022-11-20T08:41:26;7.03;;;6.27;;
25497;SDS011;13406;53.380;7.226;2022-11-20T08:44:05;8.40;;;6.80;;
25497;SDS011;13406;53.380;7.226;2022-11-20T08:46:34;7.13;;;5.90;;
25497;SDS011;13406;53.380;7.226;2022-11-20T08:49:08;7.57;;;6.20;;
25497;SDS011;13406;53.380;7.226;2022-11-20T08:51:36;6.87;;;5.80;;
25497;SDS011;13406;53.380;7.226;2022-11-20T08:54:02;7.00;;;6.30;;
25497;SDS011;13406;53.380;7.226;2022-11-20T08:56:29;8.20;;;6.20;;
25497;SDS011;13406;53.380;7.226;2022-11-20T08:59:06;7.90;;;6.87;;
25497;SDS011;13406;53.380;7.226;2022-11-20T09:01:31;9.47;;;7.00;;
25497;SDS011;13406;53.380;7.226;2022-11-20T09:03:59;7.50;;;6.50;;
25497;SDS011;13406;53.380;7.226;2022-11-20T09:06:28;7.87;;;6.77;;
25497;SDS011;13406;53.380;7.226;2022-11-20T09:08:53;7.33;;;6.27;;
25497;SDS011;13406;53.380;7.226;2022-11-20T09:11:19;10.30;;;7.17;;
25497;SDS011;13406;53.380;7.226;2022-11-20T09:13:45;7.70;;;6.43;;
25497;SDS011;13406;53.380;7.226;2022-11-20T09:16:13;7.33;;;6.40;;
25497;SDS011;13406;53.380;7.226;2022-11-20T09:18:39;7.03;;;6.17;;
25497;SDS011;13406;53.380;7.226;2022-11-20T09:21:08;8.90;;;7.47;;
25497;SDS011;13406;53.380;7.226;2022-11-20T09:23:38;6.70;;;5.97;;
25497;SDS011;13406;53.380;7.226;2022-11-20T09:26:10;6.50;;;5.80;;
25497;SDS011;13406;53.380;7.226;2022-11-20T09:28:39;7.20;;;5.67;;
25497;SDS011;13406;53.380;7.226;2022-11-20T09:31:08;6.33;;;5.73;;
25497;SDS011;13406;53.380;7.226;2022-11-20T09:33:40;8.43;;;5.87;;
25497;SDS011;13406;53.380;7.226;2022-11-20T09:36:06;7.07;;;6.00;;
25497;SDS011;13406;53.380;7.226;2022-11-20T09:38:34;7.33;;;6.30;;
25497;SDS011;13406;53.380;7.226;2022-11-20T09:41:04;6.60;;;5.37;;
25497;SDS011;13406;53.380;7.226;2022-11-20T09:46:47;5.10;;;4.60;;
25497;SDS011;13406;53.380;7.226;2022-11-20T09:49:55;5.30;;;4.27;;
25497;SDS011;13406;53.380;7.226;2022-11-20T09:52:36;6.73;;;5.90;;
25497;SDS011;13406;53.380;7.226;2022-11-20T09:55:08;12.93;;;5.70;;
25497;SDS011;13406;53.380;7.226;2022-11-20T09:57:37;18.50;;;12.40;;
25497;SDS011;13406;53.380;7.226;2022-11-20T10:00:09;12.83;;;8.60;;
25497;SDS011;13406;53.380;7.226;2022-11-20T10:05:19;8.00;;;4.80;;
25497;SDS011;13406;53.380;7.226;2022-11-20T10:07:55;5.90;;;4.50;;
25497;SDS011;13406;53.380;7.226;2022-11-20T10:10:42;4.90;;;4.03;;
25497;SDS011;13406;53.380;7.226;2022-11-20T10:13:15;5.50;;;4.53;;
25497;SDS011;13406;53.380;7.226;2022-11-20T10:16:09;5.00;;;4.43;;
25497;SDS011;13406;53.380;7.226;2022-11-20T10:29:45;7.97;;;4.67;;
25497;SDS011;13406;53.380;7.226;2022-11-20T10:32:18;4.67;;;4.07;;
25497;SDS011;13406;53.380;7.226;2022-11-20T10:35:00;6.63;;;4.73;;
25497;SDS011;13406;53.380;7.226;2022-11-20T10:37:30;4.33;;;3.93;;
25497;SDS011;13406;53.380;7.226;2022-11-20T10:42:45;8.63;;;5.80;;
25497;SDS011;13406;53.380;7.226;2022-11-20T10:47:54;5.30;;;4.60;;
25497;SDS011;13406;53.380;7.226;2022-11-20T10:50:35;6.07;;;5.40;;
25497;SDS011;13406;53.380;7.226;2022-11-20T10:53:06;6.60;;;5.87;;
25497;SDS011;13406;53.380;7.226;2022-11-20T10:55:58;7.13;;;5.70;;
25497;SDS011;13406;53.380;7.226;2022-11-20T10:58:42;6.70;;;5.80;;
25497;SDS011;13406;53.380;7.226;2022-11-20T11:01:15;7.30;;;5.30;;
25497;SDS011;13406;53.380;7.226;2022-11-20T11:03:43;5.40;;;4.90;;
25497;SDS011;13406;53.380;7.226;2022-11-20T11:06:16;6.23;;;5.63;;
25497;SDS011;13406;53.380;7.226;2022-11-20T11:08:55;5.23;;;4.73;;
25497;SDS011;13406;53.380;7.226;2022-11-20T11:11:28;5.03;;;4.33;;
25497;SDS011;13406;53.380;7.226;2022-11-20T11:14:06;5.70;;;4.67;;
25497;SDS011;13406;53.380;7.226;2022-11-20T11:16:35;5.70;;;4.87;;
25497;SDS011;13406;53.380;7.226;2022-11-20T11:19:17;7.37;;;4.93;;
25497;SDS011;13406;53.380;7.226;2022-11-20T11:21:46;5.70;;;5.10;;
25497;SDS011;13406;53.380;7.226;2022-11-20T11:24:24;5.00;;;4.30;;
25497;SDS011;13406;53.380;7.226;2022-11-20T11:26:53;4.30;;;3.90;;
25497;SDS011;13406;53.380;7.226;2022-11-20T11:29:22;4.40;;;3.83;;
25497;SDS011;13406;53.380;7.226;2022-11-20T11:32:05;3.70;;;3.17;;
25497;SDS011;13406;53.380;7.226;2022-11-20T11:34:31;4.10;;;3.70;;
25497;SDS011;13406;53.380;7.226;2022-11-20T11:36:58;7.97;;;3.80;;
25497;SDS011;13406;53.380;7.226;2022-11-20T11:39:24;4.73;;;4.20;;
25497;SDS011;13406;53.380;7.226;2022-11-20T11:41:50;4.40;;;4.00;;
25497;SDS011;13406;53.380;7.226;2022-11-20T11:44:17;3.87;;;3.47;;
25497;SDS011;13406;53.380;7.226;2022-11-20T11:47:02;3.60;;;3.30;;
25497;SDS011;13406;53.380;7.226;2022-11-20T11:49:28;5.70;;;3.73;;
25497;SDS011;13406;53.380;7.226;2022-11-20T11:54:27;6.47;;;5.27;;
25497;SDS011;13406;53.380;7.226;2022-11-20T11:56:54;5.73;;;5.03;;
25497;SDS011;13406;53.380;7.226;2022-11-20T11:59:23;10.73;;;5.50;;
25497;SDS011;13406;53.380;7.226;2022-11-20T12:01:53;7.40;;;5.60;;
25497;SDS011;13406;53.380;7.226;2022-11-20T12:04:42;6.87;;;6.17;;
25497;SDS011;13406;53.380;7.226;2022-11-20T12:07:22;6.60;;;5.67;;
25497;SDS011;13406;53.380;7.226;2022-11-20T12:09:52;9.50;;;5.60;;
25497;SDS011;13406;53.380;7.226;2022-11-20T12:12:18;7.00;;;5.30;;
25497;SDS011;13406;53.380;7.226;2022-11-20T12:14:46;8.33;;;5.97;;
25497;SDS011;13406;53.380;7.226;2022-11-20T12:17:13;6.77;;;6.07;;
25497;SDS011;13406;53.380;7.226;2022-11-20T12:19:39;8.70;;;6.60;;
25497;SDS011;13406;53.380;7.226;2022-11-20T12:25:02;7.40;;;6.47;;
25497;SDS011;13406;53.380;7.226;2022-11-20T12:27:47;8.13;;;7.00;;
25497;SDS011;13406;53.380;7.226;2022-11-20T12:30:20;8.47;;;7.10;;
25497;SDS011;13406;53.380;7.226;2022-11-20T12:35:29;12.53;;;7.50;;
25497;SDS011;13406;53.380;7.226;2022-11-20T12:40:44;9.43;;;7.93;;
25497;SDS011;13406;53.380;7.226;2022-11-20T12:43:16;10.83;;;8.27;;
25497;SDS011;13406;53.380;7.226;2022-11-20T12:46:12;14.00;;;8.70;;
25497;SDS011;13406;53.380;7.226;2022-11-20T12:51:14;11.93;;;8.40;;
25497;SDS011;13406;53.380;7.226;2022-11-20T13:04:54;13.03;;;8.40;;
25497;SDS011;13406;53.380;7.226;2022-11-20T13:06:52;10.17;;;8.30;;
25497;SDS011;13406;53.380;7.226;2022-11-20T13:09:19;9.90;;;7.87;;
25497;SDS011;13406;53.380;7.226;2022-11-20T13:12:06;11.67;;;8.50;;
25497;SDS011;13406;53.380;7.226;2022-11-20T13:17:12;9.17;;;7.37;;
25497;SDS011;13406;53.380;7.226;2022-11-20T13:19:40;7.67;;;6.63;;
25497;SDS011;13406;53.380;7.226;2022-11-20T13:22:07;7.93;;;6.90;;
25497;SDS011;13406;53.380;7.226;2022-11-20T13:24:33;9.43;;;6.50;;
25497;SDS011;13406;53.380;7.226;2022-11-20T13:29:26;8.17;;;6.90;;
25497;SDS011;13406;53.380;7.226;2022-11-20T13:32:00;8.83;;;6.90;;
25497;SDS011;13406;53.380;7.226;2022-11-20T13:34:27;8.17;;;5.90;;
25497;SDS011;13406;53.380;7.226;2022-11-20T13:36:55;6.80;;;5.73;;
25497;SDS011;13406;53.380;7.226;2022-11-20T13:39:25;7.00;;;5.90;;
25497;SDS011;13406;53.380;7.226;2022-11-20T13:42:20;7.55;;;6.13;;
25497;SDS011;13406;53.380;7.226;2022-11-20T13:44:50;8.10;;;6.63;;
25497;SDS011;13406;53.380;7.226;2022-11-20T13:47:26;8.53;;;6.93;;
25497;SDS011;13406;53.380;7.226;2022-11-20T13:49:51;9.70;;;7.30;;
25497;SDS011;13406;53.380;7.226;2022-11-20T13:55:02;8.97;;;7.17;;
25497;SDS011;13406;53.380;7.226;2022-11-20T13:57:41;7.63;;;6.83;;
25497;SDS011;13406;53.380;7.226;2022-11-20T14:00:19;8.13;;;6.50;;
25497;SDS011;13406;53.380;7.226;2022-11-20T14:02:53;7.53;;;6.37;;
25497;SDS011;13406;53.380;7.226;2022-11-20T14:05:24;8.40;;;6.97;;
25497;SDS011;13406;53.380;7.226;2022-11-20T14:07:50;7.57;;;6.87;;
25497;SDS011;13406;53.380;7.226;2022-11-20T14:10:20;8.57;;;6.93;;
25497;SDS011;13406;53.380;7.226;2022-11-20T14:12:45;11.50;;;8.60;;
25497;SDS011;13406;53.380;7.226;2022-11-20T14:15:29;9.03;;;7.70;;
25497;SDS011;13406;53.380;7.226;2022-11-20T14:17:55;8.30;;;6.50;;
25497;SDS011;13406;53.380;7.226;2022-11-20T14:20:20;7.37;;;6.30;;
25497;SDS011;13406;53.380;7.226;2022-11-20T14:22:50;8.60;;;6.47;;
25497;SDS011;13406;53.380;7.226;2022-11-20T14:27:43;8.37;;;6.43;;
25497;SDS011;13406;53.380;7.226;2022-11-20T14:30:13;6.67;;;5.90;;
25497;SDS011;13406;53.380;7.226;2022-11-20T14:32:39;7.17;;;6.43;;
25497;SDS011;13406;53.380;7.226;2022-11-20T14:35:08;7.47;;;6.00;;
25497;SDS011;13406;53.380;7.226;2022-11-20T14:37:36;7.10;;;6.00;;
25497;SDS011;13406;53.380;7.226;2022-11-20T14:40:02;6.23;;;5.10;;
25497;SDS011;13406;53.380;7.226;2022-11-20T14:42:28;6.27;;;5.63;;
25497;SDS011;13406;53.380;7.226;2022-11-20T14:44:56;7.17;;;5.23;;
25497;SDS011;13406;53.380;7.226;2022-11-20T14:47:23;8.57;;;5.63;;
25497;SDS011;13406;53.380;7.226;2022-11-20T14:49:50;5.47;;;4.73;;
25497;SDS011;13406;53.380;7.226;2022-11-20T14:52:16;5.73;;;5.10;;
25497;SDS011;13406;53.380;7.226;2022-11-20T14:57:18;17.50;;;11.20;;
25497;SDS011;13406;53.380;7.226;2022-11-20T14:59:44;15.00;;;10.17;;
25497;SDS011;13406;53.380;7.226;2022-11-20T15:02:11;8.00;;;6.60;;
25497;SDS011;13406;53.380;7.226;2022-11-20T15:04:46;6.50;;;5.13;;
25497;SDS011;13406;53.380;7.226;2022-11-20T15:07:22;6.63;;;5.80;;
25497;SDS011;13406;53.380;7.226;2022-11-20T15:09:47;8.40;;;7.00;;
25497;SDS011;13406;53.380;7.226;2022-11-20T15:12:15;10.53;;;6.90;;
25497;SDS011;13406;53.380;7.226;2022-11-20T15:14:42;7.20;;;6.50;;
25497;SDS011;13406;53.380;7.226;2022-11-20T15:17:08;8.00;;;6.53;;
25497;SDS011;13406;53.380;7.226;2022-11-20T15:19:34;8.50;;;7.50;;
25497;SDS011;13406;53.380;7.226;2022-11-20T15:22:00;7.00;;;6.03;;
25497;SDS011;13406;53.380;7.226;2022-11-20T15:24:25;16.20;;;7.43;;
25497;SDS011;13406;53.380;7.226;2022-11-20T15:26:53;7.33;;;6.30;;
25497;SDS011;13406;53.380;7.226;2022-11-20T15:29:19;7.80;;;6.80;;
25497;SDS011;13406;53.380;7.226;2022-11-20T15:31:45;10.17;;;6.07;;
25497;SDS011;13406;53.380;7.226;2022-11-20T15:34:11;8.27;;;7.10;;
25497;SDS011;13406;53.380;7.226;2022-11-20T15:36:40;9.30;;;7.77;;
25497;SDS011;13406;53.380;7.226;2022-11-20T15:39:06;9.00;;;6.70;;
25497;SDS011;13406;53.380;7.226;2022-11-20T15:41:33;7.97;;;6.37;;
25497;SDS011;13406;53.380;7.226;2022-11-20T15:43:58;6.83;;;6.10;;
25497;SDS011;13406;53.380;7.226;2022-11-20T15:46:26;7.40;;;6.43;;
25497;SDS011;13406;53.380;7.226;2022-11-20T15:48:53;8.60;;;6.37;;
25497;SDS011;13406;53.380;7.226;2022-11-20T15:53:44;10.07;;;7.57;;
25497;SDS011;13406;53.380;7.226;2022-11-20T15:56:13;8.60;;;6.63;;
25497;SDS011;13406;53.380;7.226;2022-11-20T15:58:38;8.03;;;7.13;;
25497;SDS011;13406;53.380;7.226;2022-11-20T16:01:04;8.57;;;6.30;;
25497;SDS011;13406;53.380;7.226;2022-11-20T16:03:29;6.47;;;4.73;;